Ralls, Texas
Current Conditions -  °F | °C
As of 3:53 AM on Sunday 23 Nov 2014 (Local Time) from KLBB Reporting Station
Broken Clouds Broken Clouds  
Wind Chill: 11°   Ceiling: 21000
Heat Index: 11°   Visibility: 10mi
Dew Point: -3°   Wind: 20mph
Humidity: 37%   Direction: 260°W
Pressure: 29.57"   Gusts: NA
Location:  33.67°N, 101.39°W
Report Text: KLBB 230953Z 26017KT 10SM BKN210 11/M03 A2957 RMK AO2 SLP980 T01111033
Loading
Personal Weather Stations






























Interactive Weather Map New forecast layout! Learn more

10-Day Weather Forecast

Advertisements
Track Severe Weather on mobile